ADDS METAR Data INFO
IDs: Format: Raw Decoded Include TAF

Data at: 1249 UTC 19 Oct 2017

KHCO 191234Z AUTO 14008KT 10SM CLR 02/M05 A2985 RMK AO2
KHCO 191214Z AUTO 14007KT 10SM CLR 01/M06 A2986 RMK AO2
KHCO 191154Z AUTO 15008KT 10SM CLR 00/M07 A2987 RMK AO2
KHCO 191134Z AUTO 15008KT 10SM CLR M01/M07 A2987 RMK AO2
KHCO 191114Z AUTO 16009KT 10SM CLR M01/M07 A2987 RMK AO2
KHCO 191054Z AUTO 14006KT 10SM CLR M01/M08 A2987 RMK AO2
KHCO 191034Z AUTO 16005KT 10SM CLR 00/M07 A2987 RMK AO2
KHCO 191014Z AUTO 00000KT 10SM CLR 01/M07 A2987 RMK AO2
KHCO 190954Z AUTO 00000KT 10SM CLR 02/M07 A2988 RMK AO2
KHCO 190934Z AUTO 00000KT 10SM CLR 02/M07 A2987 RMK AO2
KHCO 190914Z AUTO 20003KT 10SM CLR 01/M08 A2988 RMK AO2
KHCO 190854Z AUTO 23007KT 10SM CLR 02/M08 A2987 RMK AO2
KHCO 190834Z AUTO 23006KT 10SM CLR 01/M08 A2987 RMK AO2
KHCO 190814Z AUTO 22005KT 10SM CLR 01/M10 A2987 RMK AO2
KHCO 190754Z AUTO 23008KT 10SM CLR 02/M09 A2987 RMK AO2
KHCO 190734Z AUTO 23007KT 10SM CLR 04/M09 A2986 RMK AO2
KHCO 190714Z AUTO 24008KT 10SM CLR 02/M09 A2986 RMK AO2
KHCO 190654Z AUTO 00000KT 10SM CLR 03/M09 A2986 RMK AO2
KHCO 190634Z AUTO 25005KT 10SM CLR 02/M10 A2985 RMK AO2
KHCO 190614Z AUTO 27007KT 10SM CLR 03/M09 A2985 RMK AO2
KHCO 190554Z AUTO 27007KT 10SM CLR 05/M09 A2984 RMK AO2
KHCO 190534Z AUTO 26007KT 10SM CLR 05/M09 A2984 RMK AO2
KHCO 190514Z AUTO 27008KT 10SM CLR 06/M09 A2983 RMK AO2
KHCO 190454Z AUTO 26009KT 10SM CLR 07/M09 A2984 RMK AO2
KHCO 190434Z AUTO 25010KT 10SM CLR 08/M09 A2983 RMK AO2
KHCO 190414Z AUTO 25011KT 10SM CLR 08/M09 A2983 RMK AO2
KHCO 190354Z AUTO 25011KT 10SM CLR 08/M09 A2983 RMK AO2
KHCO 190334Z AUTO 26014KT 10SM CLR 09/M10 A2983 RMK AO2
KHCO 190314Z AUTO 26016KT 10SM CLR 09/M10 A2982 RMK AO2
KHCO 190254Z AUTO 26013KT 10SM CLR 09/M11 A2982 RMK AO2
KHCO 190234Z AUTO 26015KT 10SM CLR 10/M11 A2980 RMK AO2
KHCO 190214Z AUTO 26016KT 10SM CLR 10/M12 A2980 RMK AO2
KHCO 190154Z AUTO 25015KT 10SM CLR 11/M12 A2979 RMK AO2
KHCO 190134Z AUTO 25019KT 10SM CLR 11/M12 A2978 RMK AO2
KHCO 190114Z AUTO 25017KT 10SM CLR 11/M12 A2979 RMK AO2
KHCO 190054Z AUTO 25016G22KT 10SM CLR 11/M12 A2978 RMK AO2
KHCO 190034Z AUTO 25017KT 10SM CLR 11/M12 A2978 RMK AO2
KHCO 190014Z AUTO 25017G23KT 10SM CLR 12/M12 A2977 RMK AO2
KHCO 182354Z AUTO 26019G24KT 10SM CLR 12/M13 A2976 RMK AO2
KHCO 182334Z AUTO 26018G25KT 10SM CLR 13/M16 A2976 RMK AO2
KHCO 182315Z AUTO 27022G31KT 10SM CLR 13/M16 A2975 RMK AO2
KHCO 182254Z AUTO 27022G29KT 10SM CLR 14/M17 A2974 RMK AO2
KHCO 182234Z AUTO 27025G35KT 10SM CLR 14/M17 A2973 RMK AO2
KHCO 182215Z AUTO 27023G35KT 10SM CLR 15/M19 A2973 RMK AO2
KHCO 182154Z AUTO 28028G38KT 10SM CLR 16/M19 A2972 RMK AO2
KHCO 182134Z AUTO 27027G36KT 10SM CLR 16/M19 A2972 RMK AO2
KHCO 182114Z AUTO 28027G34KT 10SM CLR 16/M21 A2972 RMK AO2
KHCO 182054Z AUTO 28023G31KT 10SM CLR 16/M19 A2972 RMK AO2
KHCO 182034Z AUTO 28024G34KT 10SM CLR 16/M20 A2971 RMK AO2
KHCO 182014Z AUTO 28026G36KT 10SM CLR 16/M19 A2971 RMK AO2
KHCO 181954Z AUTO 28028G36KT 10SM CLR 16/M18 A2971 RMK AO2
KHCO 181934Z AUTO 28023G33KT 10SM CLR 16/M18 A2971 RMK AO2
KHCO 181914Z AUTO 27026G33KT 10SM CLR 16/M19 A2971 RMK AO2
KHCO 181854Z AUTO 28028G35KT 10SM CLR 16/M18 A2970 RMK AO2
KHCO 181834Z AUTO 26022G33KT 10SM CLR 16/M10 A2970 RMK AO2
KHCO 181814Z AUTO 27020G34KT 10SM CLR 16/M11 A2970 RMK AO2
KHCO 181754Z AUTO 27026G33KT 10SM CLR 15/M11 A2970 RMK AO2
KHCO 181734Z AUTO 27024G31KT 10SM CLR 14/M07 A2970 RMK AO2
KHCO 181714Z AUTO 27021G29KT 10SM CLR 14/M07 A2969 RMK AO2
KHCO 181654Z AUTO 27026G32KT 10SM CLR 14/M07 A2970 RMK AO2
KHCO 181634Z AUTO 27023G28KT 10SM CLR 14/M04 A2969 RMK AO2
KHCO 181614Z AUTO 27022G27KT 10SM CLR 13/M03 A2969 RMK AO2
KHCO 181554Z AUTO 27016G22KT 10SM CLR 12/M02 A2969 RMK AO2
KHCO 181534Z AUTO 27020G26KT 10SM CLR 12/M03 A2968 RMK AO2
KHCO 181514Z AUTO 27017G23KT 10SM CLR 12/M02 A2967 RMK AO2
KHCO 181454Z AUTO 28018G24KT 10SM CLR 12/M02 A2966 RMK AO2
KHCO 181434Z AUTO 27015G23KT 10SM CLR 12/00 A2966 RMK AO2
KHCO 181414Z AUTO 28018G26KT 10SM CLR 12/00 A2965 RMK AO2
KHCO 181354Z AUTO 28019G27KT 10SM CLR 13/01 A2963 RMK AO2
KHCO 181334Z AUTO 28016G24KT 10SM CLR 13/02 A2961 RMK AO2
KHCO 181314Z AUTO 28014KT 10SM CLR 13/02 A2959 RMK AO2
KHCO 181254Z AUTO 28017KT 10SM CLR 14/02 A2957 RMK AO2
KHCO 181234Z AUTO 28021G30KT 10SM CLR 13/M01 A2955 RMK AO2
KHCO 181214Z AUTO 25010KT 10SM CLR 13/00 A2954 RMK AO2
KHCO 181154Z AUTO 22007KT 10SM CLR 08/01 A2952 RMK AO2
KHCO 181134Z AUTO 19007KT 10SM CLR 09/02 A2951 RMK AO2
KHCO 181114Z AUTO 20008KT 10SM CLR 11/02 A2950 RMK AO2
KHCO 181054Z AUTO 20008KT 10SM CLR 11/02 A2950 RMK AO2
KHCO 181034Z AUTO 20010KT 10SM CLR 11/03 A2950 RMK AO2
KHCO 181014Z AUTO 20010KT 10SM CLR 11/03 A2949 RMK AO2
KHCO 180954Z AUTO 20011KT 10SM CLR 11/03 A2948 RMK AO2
KHCO 180934Z AUTO 19013KT 10SM CLR 11/03 A2947 RMK AO2
KHCO 180917Z AUTO 19013G18KT 10SM CLR 11/03 A2947 RMK AO2
KHCO 180855Z AUTO 19015KT 10SM CLR 11/02 A2944 RMK AO2
KHCO 180755Z AUTO 19013KT 10SM CLR 11/02 A2947 RMK AO2
KHCO 180721Z AUTO 18012KT 10SM CLR 11/02 A2949 RMK AO2
KHCO 180715Z AUTO 18011KT 10SM CLR 11/02 A2950 RMK AO2
KHCO 180654Z AUTO 18010KT 10SM CLR 11/02 A2951 RMK AO2
KHCO 180634Z AUTO 18010KT 10SM CLR 11/02 A2951 RMK AO2
KHCO 180614Z AUTO 18011KT 10SM CLR 11/02 A2951 RMK AO2
KHCO 180554Z AUTO 18011KT 10SM CLR 12/01 A2951 RMK AO2
KHCO 180534Z AUTO 19012KT 10SM CLR 12/01 A2952 RMK AO2
KHCO 180514Z AUTO 18012KT 10SM CLR 12/02 A2952 RMK AO2
KHCO 180454Z AUTO 19012KT 10SM CLR 12/02 A2953 RMK AO2
KHCO 180434Z AUTO 18013KT 10SM CLR 13/02 A2953 RMK AO2
KHCO 180414Z AUTO 17012KT 10SM CLR 13/01 A2954 RMK AO2
KHCO 180354Z AUTO 17013KT 10SM CLR 13/01 A2955 RMK AO2
KHCO 180334Z AUTO 17012KT 10SM CLR 13/M01 A2956 RMK AO2
KHCO 180314Z AUTO 18008KT 10SM CLR 12/M01 A2957 RMK AO2
KHCO 180254Z AUTO 18009KT 10SM CLR 13/M01 A2957 RMK AO2
KHCO 180235Z AUTO 18009KT 10SM CLR 13/M01 A2957 RMK AO2
KHCO 180214Z AUTO 18010KT 10SM CLR 13/M02 A2958 RMK AO2
KHCO 180154Z AUTO 18009KT 10SM CLR 13/M02 A2959 RMK AO2
KHCO 180134Z AUTO 18009KT 10SM CLR 13/M02 A2959 RMK AO2
KHCO 180114Z AUTO 18009KT 10SM CLR 14/M02 A2960 RMK AO2
KHCO 180054Z AUTO 19008KT 10SM CLR 15/M02 A2960 RMK AO2